Latest Weather Observations for Ulladulla

IDN60801

Issued at 4:02 pm EST Friday 28 April 2017 (issued every 30 minutes, with the page automatically refreshed every 10 minutes)

About weather observations | Map of weather stations | Latest weather observations for NSW | Other Formats
Station Details ID: 069138 Name: ULLADULLA AWS Lat: -35.36 Lon: 150.48 Height: 35.7 m
Data from the previous 72 hours. | See also: Recent months at Ulladulla
Date/Time
EST
Temp
°C
App
Temp
°C
Dew
Point
°C
Rel
Hum
%
Delta-T
°C
Wind Press
QNH
hPa
Press
MSL
hPa
Rain since
9am
mm
Dir  Spd
km/h
Gust
km/h
Spd
kts
Gust
kts
28/04:00pm 18.1 17.4 8.4 53 5.0 E 2 2 1 1 - 1020.3 -
28/03:30pm 18.1 16.5 8.1 52 5.1 SSE 6 9 3 5 1020.3 1020.3 0.0
28/03:00pm 18.2 16.5 8.5 53 5.0 SSE 7 13 4 7 1020.5 1020.5 0.0
28/02:30pm 18.4 16.3 8.1 51 5.3 SSE 9 13 5 7 1020.8 1020.8 0.0
28/02:00pm 18.3 15.3 7.7 50 5.4 S 13 19 7 10 1020.8 1020.8 0.0
28/01:30pm 18.3 15.6 7.4 49 5.5 S 11 17 6 9 1020.8 1020.8 0.0
28/01:00pm 18.4 16.1 7.5 49 5.5 S 9 13 5 7 1021.0 1021.0 0.0
28/12:30pm 18.1 15.3 6.9 48 5.6 S 11 19 6 10 1021.6 1021.6 0.0
28/12:00pm 18.1 15.3 6.9 48 5.6 SSW 11 19 6 10 1022.1 1022.1 0.0
28/11:30am 17.7 14.8 6.6 48 5.5 SSW 11 15 6 8 1022.5 1022.5 0.0
28/11:00am 17.2 14.2 6.1 48 5.4 SSW 11 17 6 9 1022.7 1022.7 0.0
28/10:30am 17.4 14.4 6.0 47 5.6 SSW 11 19 6 10 1022.8 1022.8 0.0
28/10:00am 17.1 14.2 6.3 49 5.3 SSW 11 19 6 10 1022.9 1022.9 0.0
28/09:30am 16.5 14.2 5.8 49 5.2 SW 7 13 4 7 1022.7 1022.7 0.0
28/09:00am 15.8 12.5 4.8 48 5.2 SW 11 19 6 10 1022.7 1022.7 0.0
28/08:30am 14.8 11.8 4.2 49 4.9 WSW 9 15 5 8 1022.4 1022.4 0.0
28/08:00am 14.1 11.1 4.1 51 4.6 WSW 9 15 5 8 1022.0 1022.0 0.0
28/07:30am 12.7 9.2 3.4 53 4.1 WSW 11 15 6 8 1021.7 1021.7 0.0
28/07:00am 11.4 7.8 2.9 56 3.7 WSW 11 15 6 8 1021.3 1021.3 0.0
28/06:30am 10.7 7.4 2.5 57 3.5 WSW 9 17 5 9 1021.0 1021.0 0.0
28/06:00am 10.6 7.0 2.7 58 3.4 WSW 11 19 6 10 1020.8 1020.8 0.0
28/05:30am 10.3 6.7 2.7 59 3.3 WSW 11 15 6 8 1020.8 1020.8 0.0
28/05:00am 9.9 6.6 2.3 59 3.2 WSW 9 13 5 7 1020.7 1020.7 0.0
28/04:30am 10.1 6.8 2.5 59 3.2 WSW 9 15 5 8 1020.5 1020.5 0.0
28/04:00am 9.8 6.8 2.2 59 3.2 WSW 7 13 4 7 1020.5 1020.5 0.0
28/03:30am 9.5 6.5 1.9 59 3.2 WSW 7 11 4 6 1020.4 1020.4 0.0
28/03:00am 9.9 6.9 2.0 58 3.3 WSW 7 11 4 6 1020.4 1020.4 0.0
28/02:30am 10.2 6.9 2.3 58 3.4 WSW 9 19 5 10 1020.4 1020.4 0.0
28/02:00am 9.7 6.9 2.3 60 3.1 W 6 9 3 5 1020.4 1020.4 0.0
28/01:30am 9.9 7.2 2.7 61 3.1 SW 6 11 3 6 1020.6 1020.6 0.0
28/01:00am 9.8 7.1 2.9 62 3.0 W 6 11 3 6 1020.4 1020.4 0.0
28/12:30am 10.6 7.9 2.4 57 3.5 WSW 6 11 3 6 1020.4 1020.4 0.0
28/12:00am 11.0 7.7 2.6 56 3.6 SW 9 15 5 8 1020.4 1020.4 0.0
 
Date/Time
EST
Temp
°C
App
Temp
°C
Dew
Point
°C
Rel
Hum
%
Delta-T
°C
Wind Press
QNH
hPa
Press
MSL
hPa
Rain since
9am
mm
Dir  Spd
km/h
Gust
km/h
Spd
kts
Gust
kts
27/11:30pm 10.9 7.7 3.0 58 3.4 WSW 9 13 5 7 1020.5 1020.5 0.0
27/11:00pm 11.7 7.8 3.2 56 3.7 SW 13 24 7 13 1020.5 1020.5 0.0
27/10:30pm 12.4 7.5 3.9 56 3.8 SW 19 28 10 15 1020.5 1020.5 0.0
27/10:00pm 12.6 7.5 4.3 57 3.8 SW 20 30 11 16 1020.3 1020.3 0.0
27/09:30pm 12.7 8.2 4.2 56 3.9 SW 17 28 9 15 1019.9 1019.9 0.0
27/09:00pm 12.9 8.7 3.8 54 4.1 SW 15 24 8 13 1019.7 1019.7 0.0
27/08:30pm 13.2 9.0 3.8 53 4.2 SW 15 22 8 12 1019.6 1019.6 0.0
27/08:00pm 13.7 9.2 4.0 52 4.4 SW 17 26 9 14 1019.3 1019.3 0.0
27/07:30pm 14.8 10.1 5.3 53 4.5 SW 19 32 10 17 1019.1 1019.1 0.0
27/07:00pm 16.0 8.5 6.2 52 4.8 S 35 54 19 29 1018.6 1018.6 0.0
27/06:42pm 16.1 8.0 6.8 54 4.6 S 39 57 21 31 1018.5 1018.5 0.0
27/06:30pm 16.3 7.6 7.5 56 4.4 SSE 43 59 23 32 1018.2 1018.2 0.0
27/06:24pm 16.4 7.8 6.5 52 4.9 SSE 41 59 22 32 1018.1 1018.1 0.0
27/06:00pm 16.7 9.8 7.4 54 4.6 S 33 44 18 24 1017.8 1017.7 0.0
27/05:30pm 16.6 8.4 6.4 51 5.0 SSE 39 48 21 26 1017.1 1017.0 0.0
27/05:00pm 16.7 10.3 6.8 52 4.9 SSE 30 43 16 23 1016.8 1016.7 0.0
27/04:30pm 16.8 11.1 6.9 52 4.9 S 26 37 14 20 1016.4 1016.3 0.0
27/04:00pm 17.0 10.3 7.4 53 4.8 SSE 32 43 17 23 1016.0 1015.9 0.0
27/03:30pm 17.3 10.7 7.6 53 4.9 SSE 32 44 17 24 1015.7 1015.6 0.0
27/03:00pm 17.3 10.4 7.4 52 5.0 SSE 33 43 18 23 1015.4 1015.3 0.0
27/02:30pm 17.4 11.9 7.5 52 5.0 S 26 37 14 20 1015.1 1015.0 0.0
27/02:00pm 17.5 13.1 7.3 51 5.1 S 20 35 11 19 1015.2 1015.1 0.0
27/01:30pm 16.9 12.9 6.7 51 5.0 SSW 17 28 9 15 1015.2 1015.1 0.0
27/01:00pm 16.6 11.5 6.1 50 5.1 S 22 35 12 19 1015.3 1015.2 0.0
27/12:30pm 17.0 12.4 6.5 50 5.2 SSW 20 33 11 18 1015.4 1015.3 0.0
27/12:00pm 16.9 11.8 5.8 48 5.4 SSW 22 39 12 21 1015.6 1015.5 0.0
27/11:30am 16.9 11.9 6.4 50 5.2 S 22 35 12 19 1015.8 1015.7 0.0
27/11:00am 16.0 10.4 5.3 49 5.1 SSW 24 33 13 18 1015.8 1015.7 0.0
27/10:30am 15.3 10.0 5.0 50 4.9 SSW 22 33 12 18 1015.8 1015.7 0.0
27/10:00am 15.4 9.7 4.8 49 5.0 SSW 24 41 13 22 1016.0 1015.9 0.0
27/09:30am 14.5 8.7 4.2 50 4.7 SSW 24 39 13 21 1015.9 1015.8 0.0
27/09:00am 14.3 9.7 3.7 49 4.8 SW 17 26 9 14 1015.8 1015.7 0.2
27/08:30am 13.6 8.8 2.8 48 4.8 SW 17 28 9 15 1015.2 1015.1 0.2
27/08:00am 12.9 9.2 2.2 48 4.7 SW 11 20 6 11 1015.0 1014.9 0.2
27/07:30am 12.2 7.6 1.5 48 4.6 SW 15 28 8 15 1014.3 1014.2 0.2
27/07:00am 11.6 7.3 0.7 47 4.5 SW 13 24 7 13 1013.7 1013.6 0.2
27/06:30am 11.3 6.1 0.4 47 4.5 SW 17 24 9 13 1013.3 1013.2 0.2
27/06:00am 11.5 6.3 0.3 46 4.6 SW 17 28 9 15 1013.1 1013.0 0.2
27/05:30am 10.9 6.8 0.0 47 4.4 SW 11 19 6 10 1013.0 1012.9 0.2
27/05:00am 10.8 7.2 0.5 49 4.2 SW 9 13 5 7 1012.9 1012.8 0.2
27/04:30am 11.2 7.4 1.5 51 4.1 WSW 11 24 6 13 1012.5 1012.4 0.2
27/04:00am 11.0 7.7 2.3 55 3.7 WSW 9 19 5 10 1012.3 1012.2 0.2
27/03:30am 11.1 8.0 3.4 59 3.4 WSW 9 15 5 8 1012.1 1012.0 0.2
27/03:00am 11.3 8.5 3.1 57 3.6 WSW 7 9 4 5 1012.1 1012.0 0.2
27/02:30am 11.2 8.3 2.8 56 3.6 WSW 7 13 4 7 1012.1 1012.0 0.2
27/02:00am 11.7 8.8 2.5 53 4.0 WSW 7 11 4 6 1012.2 1012.1 0.2
27/01:30am 11.7 8.9 3.2 56 3.7 WSW 7 15 4 8 1012.1 1012.0 0.2
27/01:00am 12.2 8.6 3.2 54 4.0 SW 11 20 6 11 1012.1 1012.0 0.2
27/12:30am 12.7 9.3 3.9 55 4.0 SW 11 17 6 9 1011.9 1011.8 0.2
27/12:00am 12.9 8.7 3.8 54 4.1 SW 15 22 8 12 1011.6 1011.5 0.2
 
Date/Time
EST
Temp
°C
App
Temp
°C
Dew
Point
°C
Rel
Hum
%
Delta-T
°C
Wind Press
QNH
hPa
Press
MSL
hPa
Rain since
9am
mm
Dir  Spd
km/h
Gust
km/h
Spd
kts
Gust
kts
26/11:30pm 13.0 9.0 4.9 58 3.7 SW 15 22 8 12 1011.4 1011.3 0.2
26/11:00pm 12.8 8.3 4.0 55 4.0 SW 17 24 9 13 1011.1 1011.0 0.2
26/10:30pm 13.2 8.5 5.1 58 3.8 SSW 19 28 10 15 1010.8 1010.7 0.2
26/10:00pm 13.1 10.1 6.2 63 3.3 SW 11 20 6 11 1010.8 1010.7 0.2
26/09:30pm 13.8 9.9 7.1 64 3.3 SW 17 26 9 14 1010.5 1010.4 0.2
26/09:00pm 14.1 9.8 7.9 66 3.1 SSW 20 30 11 16 1010.1 1010.0 0.2
26/08:30pm 13.6 9.6 8.2 70 2.7 SW 19 26 10 14 1009.6 1009.5 0.2
26/08:00pm 13.2 9.7 8.9 75 2.2 SW 17 26 9 14 1009.1 1009.0 0.2
26/07:30pm 12.9 10.1 10.1 83 1.4 SW 15 22 8 12 1008.7 1008.6 0.2
26/07:00pm 13.6 10.8 10.0 79 1.9 SW 15 24 8 13 1008.2 1008.1 0.0
26/06:30pm 13.6 11.3 10.4 81 1.7 SW 13 20 7 11 1007.6 1007.5 0.0
26/06:00pm 14.3 11.0 10.9 80 1.8 SSW 19 28 10 15 1006.7 1006.6 0.0
26/05:30pm 14.5 10.9 10.7 78 2.0 SSW 20 32 11 17 1006.1 1006.0 0.0
26/05:00pm 14.7 9.2 11.7 82 1.6 SSW 32 46 17 25 1005.3 1005.2 0.0
26/04:48pm 15.2 9.0 12.5 84 1.5 S 37 56 20 30 1005.1 1005.0 0.0
26/04:30pm 15.1 7.5 11.7 80 1.8 S 43 59 23 32 1004.9 1004.8 0.0
26/04:19pm 16.8 14.3 10.9 68 3.2 SW 15 54 8 29 1004.6 1004.5 0.0
26/04:00pm 18.1 16.0 8.4 53 5.0 W 9 17 5 9 1003.8 1003.7 0.0
26/03:30pm 17.2 14.4 7.0 51 5.1 WNW 11 19 6 10 1003.3 1003.2 0.0
26/03:00pm 17.9 14.6 6.4 47 5.7 NW 13 22 7 12 1003.2 1003.1 0.0
26/02:30pm 19.5 17.4 8.2 48 5.9 W 9 22 5 12 1003.2 1003.1 0.0
26/02:00pm 20.4 19.0 9.6 50 5.8 W 7 17 4 9 1002.9 1002.8 0.0
26/01:30pm 21.0 19.7 9.9 49 6.0 WNW 7 19 4 10 1002.6 1002.5 0.0
26/01:00pm 19.8 19.1 10.0 53 5.3 WSW 4 7 2 4 1002.6 1002.5 0.0
26/12:30pm 18.4 17.4 10.3 59 4.3 WSW 6 9 3 5 1003.0 1002.9 0.0
26/12:00pm 18.3 16.4 9.1 55 4.8 W 9 15 5 8 1003.4 1003.3 0.0
26/11:30am 18.4 16.2 9.2 55 4.8 WNW 11 17 6 9 1004.0 1003.9 0.0
26/11:00am 19.3 16.4 8.3 49 5.7 WNW 13 24 7 13 1004.2 1004.1 0.0
26/10:30am 20.1 18.4 9.9 52 5.5 NE 9 11 5 6 1003.9 1003.8 0.0
26/10:00am 20.5 19.5 10.9 54 5.3 NE 7 9 4 5 1004.1 1004.0 0.0
26/09:30am 20.2 19.8 11.1 56 5.0 ENE 4 9 2 5 1004.3 1004.2 0.0
26/09:00am 19.3 18.4 10.6 57 4.7 N 6 11 3 6 1004.4 1004.3 0.0
26/08:30am 19.2 18.4 11.0 59 4.5 NE 6 9 3 5 1004.7 1004.6 0.0
26/08:00am 19.0 19.4 11.3 61 4.2 CALM 0 0 0 0 1004.9 1004.8 0.0
26/07:30am 17.3 16.2 10.7 65 3.5 NW 7 11 4 6 1005.0 1004.9 0.0
26/07:00am 16.2 15.9 11.4 73 2.6 NNW 4 6 2 3 1004.7 1004.6 0.0
26/06:30am 15.4 14.9 10.6 73 2.5 WNW 4 6 2 3 1004.6 1004.5 0.0
26/06:00am 15.4 15.4 9.7 69 3.0 CALM 0 4 0 2 1004.7 1004.6 0.0
26/05:30am 17.2 15.9 10.1 63 3.8 W 7 17 4 9 1005.0 1004.9 0.0
26/05:00am 17.1 15.6 10.5 65 3.5 W 9 15 5 8 1005.0 1004.9 0.0
26/04:30am 16.3 15.9 11.2 72 2.7 N 4 6 2 3 1004.9 1004.8 0.0
26/04:00am 15.9 15.6 10.2 69 3.0 WNW 2 6 1 3 1005.1 1005.0 0.0
26/03:30am 16.6 15.9 10.0 65 3.5 W 4 6 2 3 1005.2 1005.1 0.0
26/03:00am 17.7 16.6 10.6 63 3.8 WNW 7 13 4 7 1005.3 1005.2 0.0
26/02:30am 18.3 16.5 10.7 61 4.1 WNW 11 17 6 9 1005.2 1005.1 0.0
26/02:00am 18.4 16.3 11.0 62 4.0 NW 13 19 7 10 1005.5 1005.4 0.0
26/01:30am 18.0 17.0 10.9 63 3.8 NW 7 17 4 9 1005.5 1005.4 0.0
26/01:00am 18.9 16.8 11.0 60 4.3 NW 13 22 7 12 1005.5 1005.4 0.0
26/12:30am 19.0 16.5 11.1 60 4.3 WNW 15 28 8 15 1005.8 1005.7 0.0
26/12:00am 19.3 15.8 10.8 58 4.6 NW 20 28 11 15 1005.6 1005.5 0.0
 
Date/Time
EST
Temp
°C
App
Temp
°C
Dew
Point
°C
Rel
Hum
%
Delta-T
°C
Wind Press
QNH
hPa
Press
MSL
hPa
Rain since
9am
mm
Dir  Spd
km/h
Gust
km/h
Spd
kts
Gust
kts
25/11:30pm 19.2 16.3 11.0 59 4.5 NW 17 26 9 14 1005.5 1005.4 0.0
25/11:00pm 19.8 19.0 11.6 59 4.5 NNW 7 13 4 7 1005.8 1005.7 0.0
25/10:30pm 19.9 17.9 11.4 58 4.7 NNW 13 20 7 11 1006.1 1006.0 0.0
25/10:00pm 20.0 17.9 11.2 57 4.8 NW 13 24 7 13 1006.2 1006.1 0.0
25/09:30pm 19.9 19.2 11.9 60 4.4 NW 7 15 4 8 1006.2 1006.1 0.0
25/09:00pm 20.5 20.1 12.5 60 4.5 WNW 6 11 3 6 1006.5 1006.4 0.0
25/08:30pm 21.1 19.7 13.3 61 4.5 NW 13 22 7 12 1006.4 1006.3 0.0
25/08:00pm 20.9 19.6 13.6 63 4.2 NNW 13 30 7 16 1006.3 1006.2 0.0
25/07:30pm 20.8 19.9 13.7 64 4.1 NNW 11 19 6 10 1006.3 1006.2 0.0
25/07:00pm 20.9 21.0 13.8 64 4.1 NNW 6 11 3 6 1006.8 1006.7 0.0
25/06:30pm 21.2 20.6 13.6 62 4.4 NW 9 20 5 11 1006.3 1006.2 0.0
25/06:00pm 21.4 19.3 13.6 61 4.5 NNW 17 24 9 13 1005.9 1005.8 0.0
25/05:30pm 21.5 19.3 13.4 60 4.7 NW 17 32 9 17 1005.9 1005.8 0.0
25/05:00pm 21.9 19.5 13.8 60 4.7 NNW 19 30 10 16 1005.9 1005.8 0.0
25/04:30pm 22.5 19.5 13.8 58 5.1 NNW 22 37 12 20 1005.3 1005.2 0.0

Other Formats:

Comma delimited format used in spreadsheet applications
http://www.bom.gov.au/fwo/IDN60801/IDN60801.94938.axf

JavaScript Object Notation format (JSON) in row-major order
http://www.bom.gov.au/fwo/IDN60801/IDN60801.94938.json